Time;durP1;ratioP1;P1;durP2;ratioP2;P2;SDS_P1;SDS_P2;PMS_P1;PMS_P2;Temp;Humidity;BMP_temperature;BMP_pressure;BME280_temperature;BME280_humidity;BME280_pressure;Samples;Min_cycle;Max_cycle;Signal;HPM_P1;HPM_P2
2024/01/09 00:01:43;;;;;;;1.90;1.80;;;-10.90;99.90;;;;;;6201012;23;20180;-87
2024/01/09 00:04:13;;;;;;;2.95;2.85;;;-10.90;99.90;;;;;;6201888;23;20185;-88
2024/01/09 00:06:40;;;;;;;3.40;3.20;;;-10.80;99.90;;;;;;6197815;23;20181;-86
2024/01/09 00:09:07;;;;;;;2.15;2.05;;;-10.90;99.90;;;;;;6204648;23;20176;-87
2024/01/09 00:11:34;;;;;;;2.60;2.50;;;-10.90;99.90;;;;;;6196408;23;20228;-87
2024/01/09 00:14:01;;;;;;;0.60;0.60;;;-11.00;99.90;;;;;;6194613;23;20212;-88
2024/01/09 00:16:28;;;;;;;6.53;5.95;;;-11.00;99.90;;;;;;6196497;23;20212;-87
2024/01/09 00:18:55;;;;;;;4.28;4.03;;;-11.10;99.90;;;;;;6203554;23;20172;-86
2024/01/09 00:21:24;;;;;;;5.63;4.03;;;-11.00;99.90;;;;;;6206580;23;20196;-86
2024/01/09 00:23:52;;;;;;;5.32;4.95;;;-11.00;99.90;;;;;;6201974;23;20172;-86
2024/01/09 00:26:21;;;;;;;3.35;2.00;;;-11.00;99.90;;;;;;6204429;23;20177;-87
2024/01/09 00:28:49;;;;;;;4.20;4.00;;;-10.90;99.90;;;;;;6202938;23;20184;-89
2024/01/09 00:31:16;;;;;;;5.40;5.00;;;-11.10;99.90;;;;;;6204644;23;20188;-88
2024/01/09 00:33:42;;;;;;;3.03;2.85;;;-11.10;99.90;;;;;;6198292;23;20204;-87
2024/01/09 00:36:10;;;;;;;2.65;2.55;;;-11.00;99.90;;;;;;6197074;23;20228;-86
2024/01/09 00:38:37;;;;;;;3.25;2.60;;;-11.20;99.90;;;;;;6194890;23;20192;-86
2024/01/09 00:41:04;;;;;;;7.82;7.43;;;-11.20;99.90;;;;;;6198234;23;20204;-85
2024/01/09 00:43:31;;;;;;;2.97;2.78;;;-11.00;99.90;;;;;;6195368;23;20188;-87
2024/01/09 00:45:58;;;;;;;1.77;1.67;;;-10.90;99.90;;;;;;6201674;23;20201;-87
2024/01/09 00:48:25;;;;;;;1.75;1.65;;;-11.30;99.90;;;;;;6201706;23;20184;-87
2024/01/09 00:50:52;;;;;;;3.85;3.53;;;-11.30;99.90;;;;;;6229538;22;20191;-88
2024/01/09 00:58:37;;;;;;;1.27;1.17;;;-11.30;99.90;;;;;;6208973;22;20210;-91
2024/01/09 01:01:04;;;;;;;3.63;3.30;;;-11.40;99.90;;;;;;6181184;22;20538;-86
2024/01/09 01:06:09;;;;;;;2.08;1.98;;;-11.40;99.90;;;;;;6211183;22;20219;-88
2024/01/09 01:08:37;;;;;;;2.78;2.67;;;-11.50;99.90;;;;;;6210845;23;20169;-88
2024/01/09 01:11:06;;;;;;;2.88;2.75;;;-11.50;99.90;;;;;;6205481;23;20209;-90
2024/01/09 01:13:33;;;;;;;3.88;3.65;;;-11.20;99.90;;;;;;6204371;23;20204;-87
2024/01/09 01:16:00;;;;;;;2.88;1.55;;;-11.20;99.90;;;;;;6213468;23;20185;-85
2024/01/09 01:18:27;;;;;;;4.32;4.05;;;-11.40;99.90;;;;;;6203169;23;20192;-87
2024/01/09 01:20:54;;;;;;;4.55;4.13;;;-11.40;99.90;;;;;;6194981;23;20244;-86
2024/01/09 01:23:21;;;;;;;1.98;1.88;;;-11.50;99.90;;;;;;6195535;23;20197;-86
2024/01/09 01:25:48;;;;;;;2.08;1.98;;;-11.40;99.90;;;;;;6194405;23;20187;-86
2024/01/09 01:28:15;;;;;;;2.75;2.55;;;-11.50;99.90;;;;;;6195927;23;20177;-85
2024/01/09 01:30:42;;;;;;;3.92;3.80;;;-11.60;99.90;;;;;;6198972;23;20173;-85
2024/01/09 01:33:09;;;;;;;2.55;2.45;;;-11.80;99.90;;;;;;6193711;23;20207;-86
2024/01/09 01:35:36;;;;;;;2.30;2.20;;;-11.60;99.90;;;;;;6192030;23;20184;-86
2024/01/09 01:38:03;;;;;;;1.48;1.48;;;-11.70;99.90;;;;;;6193443;23;20194;-85
2024/01/09 01:40:31;;;;;;;6.35;5.95;;;-11.60;99.90;;;;;;6194299;23;20233;-88
2024/01/09 01:42:58;;;;;;;0.50;0.50;;;-11.60;99.90;;;;;;6194754;23;20213;-87
2024/01/09 01:45:26;;;;;;;1.95;1.85;;;-11.60;99.90;;;;;;6194710;23;20183;-88
2024/01/09 01:47:53;;;;;;;1.90;1.80;;;-11.60;99.90;;;;;;6200400;23;20183;-88
2024/01/09 01:50:21;;;;;;;1.77;1.67;;;-11.60;99.90;;;;;;6194598;23;20180;-86
2024/01/09 01:52:49;;;;;;;4.82;4.53;;;-11.30;99.90;;;;;;6193995;23;20268;-88
2024/01/09 01:55:20;;;;;;;2.45;2.35;;;-11.40;99.90;;;;;;6195108;23;20185;-88
2024/01/09 01:57:49;;;;;;;3.83;3.63;;;-11.40;99.90;;;;;;6204169;23;20176;-87
2024/01/09 02:00:17;;;;;;;3.78;3.67;;;-11.70;99.90;;;;;;6204075;23;20185;-85
2024/01/09 02:02:47;;;;;;;2.45;2.35;;;-11.90;99.90;;;;;;6211982;23;20169;-86
2024/01/09 02:05:17;;;;;;;1.92;1.83;;;-11.80;99.90;;;;;;6212321;23;20177;-89
2024/01/09 02:07:46;;;;;;;5.53;5.07;;;-11.90;99.90;;;;;;6197061;23;20189;-88
2024/01/09 02:10:14;;;;;;;1.30;1.20;;;-11.70;99.90;;;;;;6197105;23;20481;-89
2024/01/09 02:12:42;;;;;;;1.27;1.27;;;-11.60;99.90;;;;;;6203494;23;20201;-89
2024/01/09 02:15:10;;;;;;;0.50;0.50;;;-11.60;99.90;;;;;;6198847;23;20526;-88
2024/01/09 02:17:39;;;;;;;1.40;1.40;;;-11.60;99.90;;;;;;6200261;23;20213;-88
2024/01/09 02:20:08;;;;;;;2.83;2.63;;;-11.60;99.90;;;;;;6176335;23;20245;-89
2024/01/09 02:22:35;;;;;;;1.67;1.58;;;-11.60;99.90;;;;;;6203077;23;20189;-86
2024/01/09 02:25:03;;;;;;;3.05;2.95;;;-11.50;99.90;;;;;;6179161;23;20187;-87
2024/01/09 02:28:01;;;;;;;0.60;0.60;;;-11.70;99.90;;;;;;6174946;23;20189;-87
2024/01/09 02:30:28;;;;;;;6.53;6.15;;;-11.70;99.90;;;;;;6185210;23;20158;-85
2024/01/09 02:32:55;;;;;;;3.15;3.05;;;-11.60;99.90;;;;;;6212927;23;20195;-85
2024/01/09 02:35:22;;;;;;;2.35;2.25;;;-11.50;99.90;;;;;;6213493;23;20184;-87
2024/01/09 02:37:50;;;;;;;4.50;4.30;;;-11.60;99.90;;;;;;6205690;23;20189;-88
2024/01/09 02:40:16;;;;;;;3.95;3.75;;;-11.40;99.90;;;;;;6198125;23;20181;-88
2024/01/09 02:45:26;;;;;;;7.72;7.32;;;-11.60;99.90;;;;;;6167737;22;20208;-89
2024/01/09 02:47:53;;;;;;;1.80;1.80;;;-11.40;99.90;;;;;;6206211;23;20181;-90
2024/01/09 02:55:35;;;;;;;3.10;2.92;;;-11.60;99.90;;;;;;6192141;23;20199;-85
2024/01/09 02:58:02;;;;;;;1.25;1.25;;;-11.60;99.90;;;;;;6190213;23;20512;-85
2024/01/09 03:00:30;;;;;;;2.35;2.25;;;-11.60;99.90;;;;;;6193638;23;20185;-87
2024/01/09 03:02:57;;;;;;;0.90;0.90;;;-11.60;99.90;;;;;;6194323;23;20181;-86
2024/01/09 03:05:24;;;;;;;3.55;3.35;;;-11.70;99.90;;;;;;6193569;23;20481;-87
2024/01/09 03:07:51;;;;;;;2.40;2.25;;;-11.70;99.90;;;;;;6194786;23;20228;-87
2024/01/09 03:10:18;;;;;;;0.85;0.85;;;-11.70;99.90;;;;;;6195074;23;20177;-87
2024/01/09 03:12:45;;;;;;;1.30;1.30;;;-11.80;99.90;;;;;;6194064;23;20200;-88
2024/01/09 03:15:12;;;;;;;2.50;2.25;;;-11.80;99.90;;;;;;6195058;23;20181;-89
2024/01/09 03:17:39;;;;;;;7.43;6.93;;;-11.70;99.90;;;;;;6198343;23;20370;-88
2024/01/09 03:20:07;;;;;;;2.35;2.25;;;-11.70;99.90;;;;;;6197953;23;20181;-87
2024/01/09 03:22:34;;;;;;;2.45;2.35;;;-11.70;99.90;;;;;;6207826;23;20221;-87
2024/01/09 03:25:01;;;;;;;1.90;0.95;;;-11.80;99.90;;;;;;6205674;23;20173;-87
2024/01/09 03:27:28;;;;;;;3.50;3.25;;;-11.90;99.90;;;;;;6204530;23;20236;-86
2024/01/09 03:29:55;;;;;;;2.75;2.65;;;-11.90;99.90;;;;;;6200911;23;20181;-88
2024/01/09 03:32:22;;;;;;;1.05;1.05;;;-11.80;99.90;;;;;;6195761;23;20235;-88
2024/01/09 03:34:49;;;;;;;6.43;1.35;;;-11.90;99.90;;;;;;6197609;23;20196;-88
2024/01/09 03:37:16;;;;;;;3.90;3.67;;;-11.80;99.90;;;;;;6199678;23;20181;-89
2024/01/09 03:39:45;;;;;;;0.90;0.90;;;-12.00;99.90;;;;;;6200387;23;20185;-88
2024/01/09 03:42:12;;;;;;;5.57;5.05;;;-11.90;99.90;;;;;;6199474;23;20177;-89
2024/01/09 03:44:39;;;;;;;3.63;2.30;;;-11.80;99.90;;;;;;6197973;23;20369;-88
2024/01/09 03:47:06;;;;;;;6.88;6.47;;;-11.80;99.90;;;;;;6222124;23;20189;-89
2024/01/09 03:49:33;;;;;;;5.25;4.97;;;-11.80;99.90;;;;;;6198616;23;20176;-89
2024/01/09 03:52:01;;;;;;;2.53;2.42;;;-12.00;99.90;;;;;;6199147;23;20228;-88
2024/01/09 03:54:28;;;;;;;1.60;1.50;;;-12.00;99.90;;;;;;6200351;23;20197;-89
2024/01/09 04:21:05;;;;;;;2.20;2.10;;;-12.20;99.90;;;;;;6174124;22;21563;-87
2024/01/09 04:23:33;;;;;;;2.40;2.30;;;-12.20;99.90;;;;;;6163223;23;20200;-88
2024/01/09 04:26:00;;;;;;;1.40;1.40;;;-12.00;99.90;;;;;;6224759;23;20188;-87
2024/01/09 04:28:27;;;;;;;2.90;2.80;;;-12.10;99.90;;;;;;6225364;23;20367;-86
2024/01/09 04:30:56;;;;;;;3.33;3.13;;;-12.10;99.90;;;;;;6224457;23;20435;-87
2024/01/09 04:33:23;;;;;;;6.50;5.57;;;-12.10;99.90;;;;;;6229374;23;20207;-88
2024/01/09 04:35:51;;;;;;;1.00;1.00;;;-12.10;99.90;;;;;;6227062;23;20244;-86
2024/01/09 04:38:18;;;;;;;4.43;4.22;;;-12.00;99.90;;;;;;6230138;23;20167;-88
2024/01/09 04:40:45;;;;;;;0.88;0.88;;;-11.90;99.90;;;;;;6211651;23;20172;-88
2024/01/09 04:43:12;;;;;;;2.53;2.42;;;-11.90;99.90;;;;;;6204488;23;20208;-88
2024/01/09 04:45:39;;;;;;;6.38;5.88;;;-12.10;99.90;;;;;;6210650;23;20189;-89
2024/01/09 04:48:07;;;;;;;0.88;0.88;;;-12.10;99.90;;;;;;6186603;23;20165;-88
2024/01/09 04:50:34;;;;;;;4.07;3.88;;;-11.90;99.90;;;;;;6211884;23;20169;-87
2024/01/09 04:53:01;;;;;;;3.45;3.25;;;-11.90;99.90;;;;;;6206394;23;20244;-87
2024/01/09 04:55:29;;;;;;;1.30;1.30;;;-12.20;99.90;;;;;;6201061;23;20195;-89
2024/01/09 04:57:55;;;;;;;1.13;1.13;;;-12.50;99.90;;;;;;6196141;23;20204;-89
2024/01/09 05:02:59;;;;;;;4.85;4.63;;;-12.40;99.90;;;;;;6185167;22;20208;-88
2024/01/09 05:13:25;;;;;;;3.83;3.63;;;-12.20;99.90;;;;;;6156987;22;20289;-86
2024/01/09 05:18:27;;;;;;;8.30;7.68;;;-12.30;99.90;;;;;;6167096;22;20214;-87
2024/01/09 05:23:34;;;;;;;1.60;1.60;;;-12.30;99.90;;;;;;6199366;23;20235;-88
2024/01/09 05:26:01;;;;;;;5.75;5.32;;;-12.10;99.90;;;;;;6203022;23;20188;-88
2024/01/09 05:28:28;;;;;;;2.00;1.90;;;-12.10;99.90;;;;;;6213021;23;20172;-89
2024/01/09 05:30:55;;;;;;;1.35;1.35;;;-12.30;99.90;;;;;;6212905;23;20192;-87
2024/01/09 05:33:24;;;;;;;3.95;3.63;;;-12.30;99.90;;;;;;6211636;23;20189;-89
2024/01/09 05:35:52;;;;;;;4.05;3.78;;;-12.10;99.90;;;;;;6201547;23;20199;-87
2024/01/09 05:38:24;;;;;;;1.08;1.08;;;-12.30;99.90;;;;;;6195559;23;20185;-88
2024/01/09 05:40:56;;;;;;;0.57;0.57;;;-12.40;99.90;;;;;;6217698;23;20198;-87
2024/01/09 05:43:23;;;;;;;1.13;1.13;;;-12.30;99.90;;;;;;6215820;23;20180;-80
2024/01/09 05:45:50;;;;;;;0.77;0.77;;;-12.40;99.90;;;;;;6192718;23;20211;-84
2024/01/09 05:48:20;;;;;;;2.42;2.28;;;-12.20;99.90;;;;;;6191857;23;20488;-86
2024/01/09 05:50:49;;;;;;;2.13;2.05;;;-12.20;99.90;;;;;;6192538;23;20173;-81
2024/01/09 05:53:17;;;;;;;0.70;0.70;;;-12.40;99.90;;;;;;6216858;23;20256;-85
2024/01/09 05:55:46;;;;;;;0.70;0.70;;;-12.30;99.90;;;;;;6192376;23;20177;-85
2024/01/09 05:58:16;;;;;;;0.75;0.75;;;-12.30;99.90;;;;;;6192873;23;20515;-81
2024/01/09 06:00:45;;;;;;;3.25;3.13;;;-12.50;99.90;;;;;;6192176;23;20173;-81
2024/01/09 06:03:13;;;;;;;4.68;3.67;;;-12.50;99.90;;;;;;6193021;23;20173;-83
2024/01/09 06:05:40;;;;;;;0.98;0.98;;;-12.60;99.90;;;;;;6194873;23;20605;-81
2024/01/09 06:08:07;;;;;;;1.48;1.38;;;-12.40;99.90;;;;;;6193339;23;20508;-82
2024/01/09 06:10:43;;;;;;;3.03;2.88;;;-12.60;99.90;;;;;;6193951;23;20254;-83
2024/01/09 06:13:14;;;;;;;2.47;2.38;;;-12.60;99.90;;;;;;6192175;23;20175;-83
2024/01/09 06:15:43;;;;;;;2.67;2.53;;;-12.60;99.90;;;;;;6192315;23;20215;-83
2024/01/09 06:18:10;;;;;;;2.35;2.22;;;-12.70;99.90;;;;;;6193540;23;20183;-83
2024/01/09 06:20:39;;;;;;;2.42;2.25;;;-12.60;99.90;;;;;;6192780;23;20233;-82
2024/01/09 06:23:14;;;;;;;2.70;2.58;;;-12.40;99.90;;;;;;6193674;23;20189;-82
2024/01/09 06:25:44;;;;;;;0.98;0.98;;;-12.30;99.90;;;;;;6190069;23;20171;-84
2024/01/09 06:28:13;;;;;;;2.13;2.03;;;-12.50;99.90;;;;;;6189677;23;20260;-83
2024/01/09 06:30:45;;;;;;;2.15;2.05;;;-12.40;99.90;;;;;;6192487;23;20220;-83
2024/01/09 06:33:24;;;;;;;0.50;0.50;;;-12.50;99.90;;;;;;6195939;23;20176;-82
2024/01/09 06:41:16;;;;;;;2.05;1.95;;;-12.20;99.90;;;;;;6157657;22;20237;-89
2024/01/09 06:54:32;;;;;;;3.63;3.42;;;-12.40;99.90;;;;;;6169055;22;20325;-90
2024/01/09 06:57:03;;;;;;;3.30;3.10;;;-12.40;99.90;;;;;;6179336;23;20212;-90
2024/01/09 06:59:32;;;;;;;7.20;3.35;;;-12.50;99.90;;;;;;6198734;23;20176;-89
2024/01/09 07:09:45;;;;;;;0.95;0.95;;;-12.60;99.90;;;;;;6197054;22;20201;-89
2024/01/09 07:14:48;;;;;;;2.80;2.55;;;-12.70;99.90;;;;;;6195307;22;20242;-90
2024/01/09 07:19:43;;;;;;;4.28;3.97;;;-12.60;99.90;;;;;;6193687;22;20205;-89
2024/01/09 07:27:28;;;;;;;1.02;1.02;;;-12.40;99.90;;;;;;6181934;22;20227;-89
2024/01/09 07:29:55;;;;;;;1.15;1.15;;;-12.40;99.90;;;;;;6179728;22;20204;-90
2024/01/09 07:32:23;;;;;;;1.45;1.35;;;-12.30;99.90;;;;;;6159853;22;20911;-89
2024/01/09 07:37:32;;;;;;;2.45;2.33;;;-12.40;99.90;;;;;;6203007;22;20565;-89
2024/01/09 07:39:59;;;;;;;0.70;0.70;;;-12.40;99.90;;;;;;6201699;23;20177;-88
2024/01/09 07:42:28;;;;;;;3.35;3.20;;;-12.40;99.90;;;;;;6169761;22;20211;-88
2024/01/09 07:44:55;;;;;;;2.10;2.03;;;-12.40;99.90;;;;;;6199882;23;20195;-89
2024/01/09 07:47:23;;;;;;;2.65;2.55;;;-12.10;99.90;;;;;;6200963;23;20209;-87
2024/01/09 07:49:50;;;;;;;1.90;1.85;;;-12.10;99.90;;;;;;6205211;23;20172;-88
2024/01/09 07:52:17;;;;;;;5.68;5.40;;;-12.10;99.90;;;;;;6199863;23;20181;-89
2024/01/09 07:54:44;;;;;;;3.58;3.40;;;-12.10;99.90;;;;;;6172367;23;20208;-89
2024/01/09 07:57:12;;;;;;;3.08;2.90;;;-12.20;99.90;;;;;;6172196;23;20200;-89
2024/01/09 07:59:48;;;;;;;2.65;2.45;;;-12.10;99.90;;;;;;6197956;23;20171;-88
2024/01/09 08:02:15;;;;;;;3.17;3.08;;;-11.90;99.90;;;;;;6204837;23;20245;-88
2024/01/09 08:04:43;;;;;;;3.47;3.22;;;-11.70;99.90;;;;;;6198058;22;20256;-89
2024/01/09 08:07:10;;;;;;;2.13;2.03;;;-11.80;99.90;;;;;;6203326;23;20204;-88
2024/01/09 08:10:01;;;;;;;3.00;2.90;;;-11.90;99.90;;;;;;5746174;22;22757;-89
2024/01/09 08:15:01;;;;;;;2.35;2.25;;;-11.90;99.90;;;;;;5207555;22;20208;-89
2024/01/09 08:17:30;;;;;;;5.05;4.85;;;-11.80;99.90;;;;;;5077295;28;20183;-88
2024/01/09 08:19:57;;;;;;;7.72;4.05;;;-11.80;99.90;;;;;;5112387;22;21478;-89
2024/01/09 08:22:24;;;;;;;2.45;1.70;;;-11.80;99.90;;;;;;5111816;28;20221;-89
2024/01/09 08:24:51;;;;;;;1.38;1.30;;;-11.80;99.90;;;;;;5121936;28;20315;-89
2024/01/09 08:27:18;;;;;;;3.10;3.00;;;-11.80;99.90;;;;;;5097685;28;20203;-86
2024/01/09 08:29:45;;;;;;;1.60;1.60;;;-11.80;99.90;;;;;;5226200;22;20260;-88
2024/01/09 08:32:15;;;;;;;4.72;4.53;;;-11.80;99.90;;;;;;5398900;22;20235;-89
2024/01/09 08:34:42;;;;;;;1.50;1.50;;;-11.80;99.90;;;;;;5158904;22;20215;-88
2024/01/09 08:37:09;;;;;;;2.03;1.92;;;-11.80;99.90;;;;;;5094089;28;20179;-89
2024/01/09 08:42:16;;;;;;;1.85;1.85;;;-11.70;99.90;;;;;;5107657;22;20191;-90
2024/01/09 08:53:00;;;;;;;1.95;1.85;;;-11.60;99.90;;;;;;5303997;22;20200;-87
2024/01/09 08:58:16;;;;;;;2.15;2.05;;;-11.40;99.90;;;;;;5291213;23;20240;-88
2024/01/09 09:17:01;;;;;;;1.50;1.50;;;-11.10;99.90;;;;;;6226054;22;20304;-89
2024/01/09 09:22:11;;;;;;;0.95;0.95;;;-11.00;99.90;;;;;;6278528;22;20196;-90
2024/01/09 09:24:38;;;;;;;12.05;7.45;;;-10.90;99.90;;;;;;6221864;22;20285;-88
2024/01/09 09:27:05;;;;;;;5.18;4.28;;;-10.80;99.90;;;;;;6365239;22;20202;-88
2024/01/09 09:29:32;;;;;;;7.93;5.45;;;-10.70;99.90;;;;;;6310757;22;20197;-89
2024/01/09 09:32:05;;;;;;;5.23;4.93;;;-10.80;99.90;;;;;;6300901;22;20198;-86
2024/01/09 09:34:33;;;;;;;2.92;2.83;;;-10.70;99.90;;;;;;6309445;22;20201;-89
2024/01/09 09:37:00;;;;;;;3.05;2.58;;;-10.80;99.90;;;;;;6339163;22;20191;-88
2024/01/09 09:39:27;;;;;;;2.15;1.95;;;-10.60;99.90;;;;;;6335600;22;20215;-88
2024/01/09 09:47:15;;;;;;;3.70;3.50;;;-10.80;99.90;;;;;;6360275;22;20388;-89
2024/01/09 09:49:43;;;;;;;8.55;7.55;;;-10.70;99.90;;;;;;6363101;22;20259;-89
2024/01/09 09:52:10;;;;;;;4.97;4.78;;;-10.60;99.90;;;;;;6370709;22;20210;-89
2024/01/09 09:54:38;;;;;;;7.50;6.55;;;-10.50;99.90;;;;;;6370558;22;20171;-89
2024/01/09 10:18:10;;;;;;;4.82;4.43;;;-10.30;99.90;;;;;;6372976;22;20212;-89
2024/01/09 10:20:38;;;;;;;2.88;2.78;;;-10.30;99.90;;;;;;6293967;22;20211;-90
2024/01/09 10:31:11;;;;;;;6.70;4.95;;;-10.10;99.90;;;;;;6348772;22;20193;-90
2024/01/09 10:33:42;;;;;;;2.95;2.67;;;-9.80;99.90;;;;;;6300894;22;20489;-89
2024/01/09 10:44:15;;;;;;;5.80;3.08;;;-9.90;99.90;;;;;;6283738;22;20208;-88
2024/01/09 10:46:43;;;;;;;5.53;5.18;;;-9.70;99.90;;;;;;6389056;22;20180;-87
2024/01/09 10:49:11;;;;;;;6.57;4.88;;;-9.80;99.90;;;;;;6358838;22;20188;-87
2024/01/09 10:54:11;;;;;;;8.38;7.18;;;-9.80;99.90;;;;;;6354664;22;20200;-89
2024/01/09 10:59:14;;;;;;;6.10;5.70;;;-9.80;99.90;;;;;;6390975;22;20410;-89
2024/01/09 11:01:42;;;;;;;3.75;3.58;;;-9.70;99.90;;;;;;6361466;22;20200;-89
2024/01/09 11:04:09;;;;;;;6.82;6.20;;;-9.80;99.90;;;;;;6387745;22;20176;-89
2024/01/09 11:06:39;;;;;;;6.00;5.68;;;-9.70;99.90;;;;;;6360601;22;20179;-88
2024/01/09 11:09:15;;;;;;;6.20;5.55;;;-9.50;99.90;;;;;;6362843;22;20148;-88
2024/01/09 11:11:43;;;;;;;11.23;8.23;;;-9.40;99.90;;;;;;6302976;22;20191;-84
2024/01/09 11:14:17;;;;;;;6.97;6.47;;;-9.50;99.90;;;;;;6364826;22;20186;-90
2024/01/09 11:16:48;;;;;;;5.35;2.80;;;-9.60;99.90;;;;;;6323027;22;20232;-88
2024/01/09 11:19:25;;;;;;;4.30;4.03;;;-9.80;99.90;;;;;;6296909;22;20205;-87
2024/01/09 11:21:52;;;;;;;8.95;8.02;;;-9.60;99.90;;;;;;6392781;22;20191;-88
2024/01/09 11:24:26;;;;;;;5.93;5.53;;;-9.60;99.90;;;;;;6365944;22;20177;-90
2024/01/09 11:29:53;;;;;;;6.78;6.15;;;-9.40;99.90;;;;;;6256008;22;20197;-89
2024/01/09 11:45:53;;;;;;;8.65;7.80;;;-9.40;99.90;;;;;;6341641;22;20317;-89
2024/01/09 11:50:56;;;;;;;8.13;7.45;;;-9.20;99.90;;;;;;6269048;22;20182;-89
2024/01/09 11:55:59;;;;;;;4.70;4.40;;;-9.10;99.90;;;;;;6264740;22;20193;-88
2024/01/09 11:58:27;;;;;;;6.55;5.90;;;-9.00;99.90;;;;;;6382145;22;20189;-90
2024/01/09 12:08:53;;;;;;;8.20;7.35;;;-9.10;99.90;;;;;;6220646;22;20322;-91
2024/01/09 12:11:20;;;;;;;14.15;6.72;;;-9.00;99.90;;;;;;6398948;22;20149;-89
2024/01/09 12:13:58;;;;;;;8.25;7.57;;;-8.80;99.90;;;;;;6367596;22;20171;-89
2024/01/09 12:16:25;;;;;;;7.03;6.45;;;-8.90;99.90;;;;;;6323968;22;20210;-90
2024/01/09 12:21:34;;;;;;;4.15;3.35;;;-8.70;99.90;;;;;;6374093;22;20225;-90
2024/01/09 12:24:05;;;;;;;3.72;3.47;;;-8.90;99.90;;;;;;6302192;22;21372;-88
2024/01/09 12:31:40;;;;;;;22.48;9.05;;;-8.70;99.90;;;;;;6347252;22;20438;-89
2024/01/09 12:36:39;;;;;;;10.15;9.20;;;-8.50;99.90;;;;;;6390782;22;20233;-90
2024/01/09 12:41:53;;;;;;;4.25;3.95;;;-8.50;99.90;;;;;;6269585;22;20233;-89
2024/01/09 12:44:21;;;;;;;4.50;3.45;;;-8.60;99.90;;;;;;6211121;22;20432;-90
2024/01/09 13:11:09;;;;;;;5.53;5.25;;;-7.90;99.90;;;;;;6327809;22;20226;-92
2024/01/09 13:25:13;;;;;;;4.03;3.63;;;-8.00;99.90;;;;;;6379454;22;20225;-88
2024/01/09 13:27:43;;;;;;;8.77;7.57;;;-8.00;99.90;;;;;;6288959;22;20243;-88
2024/01/09 13:32:57;;;;;;;8.60;6.38;;;-7.90;99.90;;;;;;6343522;22;20204;-91
2024/01/09 13:38:00;;;;;;;9.02;4.85;;;-7.70;99.90;;;;;;6388508;22;20202;-90
2024/01/09 13:43:10;;;;;;;2.75;2.55;;;-7.90;99.90;;;;;;6277834;22;20197;-90
2024/01/09 13:56:32;;;;;;;5.03;4.72;;;-7.70;99.90;;;;;;6267778;22;20250;-92
2024/01/09 13:58:59;;;;;;;3.20;3.00;;;-7.80;99.90;;;;;;6363255;22;20480;-90
2024/01/09 14:01:28;;;;;;;5.38;2.75;;;-7.60;99.90;;;;;;6361219;22;20222;-90
2024/01/09 14:04:11;;;;;;;3.63;3.38;;;-7.80;99.90;;;;;;6368680;22;20157;-92
2024/01/09 14:06:39;;;;;;;5.65;4.50;;;-7.60;99.90;;;;;;6365182;22;20230;-90
2024/01/09 14:09:24;;;;;;;6.45;5.95;;;-8.00;99.90;;;;;;6367500;22;20175;-90
2024/01/09 14:11:59;;;;;;;3.88;2.38;;;-7.90;99.90;;;;;;6393687;22;20181;-88
2024/01/09 14:17:04;;;;;;;6.90;5.10;;;-7.60;99.90;;;;;;6356327;22;20185;-89
2024/01/09 14:19:33;;;;;;;8.23;7.53;;;-7.80;99.90;;;;;;6367562;22;20185;-90
2024/01/09 14:22:01;;;;;;;4.65;4.40;;;-7.80;99.90;;;;;;6276784;22;20868;-87
2024/01/09 14:27:12;;;;;;;1.60;1.60;;;-7.80;99.90;;;;;;6348858;22;20215;-90
2024/01/09 14:29:39;;;;;;;1.45;1.45;;;-7.90;99.90;;;;;;6269939;22;20465;-90
2024/01/09 14:32:24;;;;;;;9.77;2.25;;;-7.60;99.90;;;;;;6282662;22;20210;-86
2024/01/09 14:35:06;;;;;;;4.15;1.80;;;-7.90;99.90;;;;;;6343636;22;20184;-89
2024/01/09 14:50:52;;;;;;;7.85;4.03;;;-8.20;99.90;;;;;;6390954;22;20165;-84
2024/01/09 14:53:19;;;;;;;6.63;4.45;;;-8.10;99.90;;;;;;6362285;22;20415;-85
2024/01/09 14:55:47;;;;;;;9.00;4.72;;;-8.30;99.90;;;;;;6391208;22;20372;-84
2024/01/09 14:58:14;;;;;;;2.67;2.58;;;-8.40;99.90;;;;;;6356069;22;20185;-84
2024/01/09 15:00:43;;;;;;;5.85;5.05;;;-8.30;99.90;;;;;;6362082;22;20208;-84
2024/01/09 15:03:18;;;;;;;2.80;2.70;;;-8.50;99.90;;;;;;6341240;22;20218;-84
2024/01/09 15:05:59;;;;;;;1.55;1.55;;;-8.50;99.90;;;;;;6366725;22;20194;-84
2024/01/09 15:08:26;;;;;;;8.20;6.70;;;-8.50;99.90;;;;;;6389946;22;20181;-83
2024/01/09 15:10:55;;;;;;;5.18;4.78;;;-8.50;99.90;;;;;;6358049;22;20232;-86
2024/01/09 15:13:29;;;;;;;3.95;3.65;;;-8.60;99.90;;;;;;6334113;22;20382;-83
2024/01/09 15:16:13;;;;;;;5.35;4.45;;;-8.60;99.90;;;;;;6353641;22;20189;-83
2024/01/09 15:18:50;;;;;;;14.30;6.68;;;-8.60;99.90;;;;;;6358293;22;20184;-84
2024/01/09 15:21:24;;;;;;;4.60;4.18;;;-8.70;99.90;;;;;;6331089;22;20540;-85
2024/01/09 15:23:52;;;;;;;4.00;3.80;;;-8.70;99.90;;;;;;6333590;22;20173;-85
2024/01/09 15:26:39;;;;;;;3.78;3.38;;;-8.70;99.90;;;;;;6334947;22;20507;-84
2024/01/09 15:29:11;;;;;;;7.85;5.75;;;-8.60;99.90;;;;;;6333197;22;20173;-83
2024/01/09 15:31:40;;;;;;;3.97;3.80;;;-8.80;99.90;;;;;;6384502;22;20177;-83
2024/01/09 15:34:23;;;;;;;5.68;5.18;;;-8.90;99.90;;;;;;6341051;22;20381;-81
2024/01/09 15:36:53;;;;;;;5.78;5.32;;;-9.00;99.90;;;;;;6336445;22;20389;-82
2024/01/09 15:39:36;;;;;;;6.07;4.50;;;-9.00;99.90;;;;;;6338266;22;20177;-84
2024/01/09 15:42:24;;;;;;;3.30;3.13;;;-9.10;99.90;;;;;;6381798;22;20184;-84
2024/01/09 15:44:58;;;;;;;5.05;4.70;;;-9.10;99.90;;;;;;6379853;22;20229;-84
2024/01/09 15:47:25;;;;;;;3.90;3.60;;;-9.30;99.90;;;;;;6383084;22;20199;-83
2024/01/09 15:50:01;;;;;;;14.18;5.68;;;-9.40;99.90;;;;;;6354078;22;20488;-82
2024/01/09 15:52:44;;;;;;;4.97;4.45;;;-9.50;99.90;;;;;;6367303;22;20285;-87
2024/01/09 15:55:20;;;;;;;7.07;5.40;;;-9.60;99.90;;;;;;6392762;22;20198;-83
2024/01/09 15:57:55;;;;;;;9.73;9.02;;;-9.60;99.90;;;;;;6396029;22;20160;-91
2024/01/09 16:00:27;;;;;;;8.32;7.15;;;-9.60;99.90;;;;;;6389266;22;20200;-85
2024/01/09 16:02:59;;;;;;;4.47;4.10;;;-9.60;99.90;;;;;;6390320;22;20193;-83
2024/01/09 16:05:29;;;;;;;7.43;5.78;;;-9.70;99.90;;;;;;6386069;22;20176;-83
2024/01/09 16:07:57;;;;;;;4.72;4.32;;;-9.70;99.90;;;;;;6362036;22;20199;-83
2024/01/09 16:10:34;;;;;;;8.57;6.30;;;-9.70;99.90;;;;;;6385347;22;20348;-83
2024/01/09 16:13:02;;;;;;;6.55;5.93;;;-9.80;99.90;;;;;;6386616;22;20173;-83
2024/01/09 16:15:30;;;;;;;6.47;6.10;;;-9.70;99.90;;;;;;6358605;22;20184;-81
2024/01/09 16:18:00;;;;;;;21.50;10.15;;;-9.80;99.90;;;;;;6358056;22;20165;-82
2024/01/09 16:20:27;;;;;;;15.80;13.02;;;-9.80;99.90;;;;;;6359396;22;20241;-83
2024/01/09 16:23:00;;;;;;;12.55;9.00;;;-9.90;99.90;;;;;;6365386;22;20161;-81
2024/01/09 16:25:36;;;;;;;6.40;4.65;;;-10.00;99.90;;;;;;6340097;22;20270;-82
2024/01/09 16:28:04;;;;;;;4.50;4.07;;;-10.00;99.90;;;;;;6359602;22;20172;-81
2024/01/09 16:30:33;;;;;;;9.48;8.52;;;-10.10;99.90;;;;;;6388839;22;20195;-85
2024/01/09 16:33:01;;;;;;;3.47;3.17;;;-10.10;99.90;;;;;;6339230;22;20280;-84
2024/01/09 16:35:30;;;;;;;11.55;9.23;;;-10.00;99.90;;;;;;6362415;22;20150;-83
2024/01/09 16:37:58;;;;;;;18.25;10.70;;;-10.10;99.90;;;;;;6361833;22;20172;-83
2024/01/09 16:40:34;;;;;;;9.73;9.13;;;-10.20;99.90;;;;;;6386328;22;20184;-84
2024/01/09 16:43:02;;;;;;;7.90;6.65;;;-10.30;99.90;;;;;;6386915;22;20198;-82
2024/01/09 16:45:29;;;;;;;8.77;8.10;;;-10.30;99.90;;;;;;6358468;22;20173;-83
2024/01/09 16:48:10;;;;;;;7.95;7.30;;;-10.30;99.90;;;;;;6365740;22;20160;-87
2024/01/09 16:50:38;;;;;;;5.85;5.45;;;-10.30;99.90;;;;;;6370833;22;20168;-83
2024/01/09 16:53:06;;;;;;;9.82;4.70;;;-10.50;99.90;;;;;;6371922;22;20198;-83
2024/01/09 16:55:36;;;;;;;11.75;9.98;;;-10.50;99.90;;;;;;6372417;22;20160;-81
2024/01/09 16:58:05;;;;;;;7.72;3.95;;;-10.30;99.90;;;;;;6362445;22;20176;-83
2024/01/09 17:00:34;;;;;;;6.10;5.75;;;-10.50;99.90;;;;;;6365954;22;20211;-83
2024/01/09 17:03:06;;;;;;;9.77;9.05;;;-10.60;99.90;;;;;;6388359;22;20177;-83
2024/01/09 17:05:34;;;;;;;26.30;12.52;;;-10.70;99.90;;;;;;6360072;22;20206;-84
2024/01/09 17:08:02;;;;;;;20.20;7.88;;;-10.50;99.90;;;;;;6358920;22;20168;-83
2024/01/09 17:10:31;;;;;;;5.13;4.80;;;-10.60;99.90;;;;;;6383643;22;20172;-82
2024/01/09 17:13:14;;;;;;;5.07;4.50;;;-10.70;99.90;;;;;;6358345;22;20195;-84
2024/01/09 17:15:44;;;;;;;6.60;6.07;;;-10.70;99.90;;;;;;6361834;22;20190;-84
2024/01/09 17:18:21;;;;;;;6.25;5.00;;;-10.80;99.90;;;;;;6369597;22;20182;-83
2024/01/09 17:21:06;;;;;;;4.28;4.10;;;-10.70;99.90;;;;;;6389435;22;20193;-84
2024/01/09 17:23:36;;;;;;;5.88;5.30;;;-10.80;99.90;;;;;;6390987;22;20225;-81
2024/01/09 17:26:04;;;;;;;5.03;4.68;;;-10.90;99.90;;;;;;6362555;22;20173;-82
2024/01/09 17:28:53;;;;;;;9.55;8.95;;;-10.90;99.90;;;;;;6393939;22;20165;-85
2024/01/09 17:31:23;;;;;;;2.15;2.05;;;-11.00;99.90;;;;;;6364611;22;20192;-83
2024/01/09 17:34:04;;;;;;;6.35;4.40;;;-11.00;99.90;;;;;;6364878;22;20210;-82
2024/01/09 17:36:34;;;;;;;9.85;9.02;;;-11.00;99.90;;;;;;6364093;22;20196;-82
2024/01/09 17:39:06;;;;;;;5.50;5.18;;;-11.00;99.90;;;;;;6360855;22;20425;-83
2024/01/09 17:41:38;;;;;;;8.80;7.50;;;-11.00;99.90;;;;;;6336525;22;20177;-83